Time;durP1;ratioP1;P1;durP2;ratioP2;P2;SDS_P1;SDS_P2;PMS_P1;PMS_P2;Temp;Humidity;BMP_temperature;BMP_pressure;BME280_temperature;BME280_humidity;BME280_pressure;Samples;Min_cycle;Max_cycle;Signal;HPM_P1;HPM_P2
2023/06/21 00:00:11;;;;;;;5.28;3.80;;;;;;;;;;5063221;28;39822;-43
2023/06/21 00:02:40;;;;;;;4.20;3.80;;;;;;;;;;5059496;28;41270;-43
2023/06/21 00:05:08;;;;;;;3.53;3.22;;;;;;;;;;5065898;28;43884;-42
2023/06/21 00:07:38;;;;;;;4.55;3.90;;;;;;;;;;5065691;28;41220;-43
2023/06/21 00:10:07;;;;;;;5.50;3.90;;;;;;;;;;5065193;28;43734;-42
2023/06/21 00:12:37;;;;;;;4.45;4.05;;;;;;;;;;5065506;28;44429;-43
2023/06/21 00:15:05;;;;;;;4.40;3.97;;;;;;;;;;5065384;28;43632;-43
2023/06/21 00:17:33;;;;;;;3.85;3.55;;;;;;;;;;5064058;28;44442;-42
2023/06/21 00:20:06;;;;;;;4.93;4.03;;;;;;;;;;5051704;28;41406;-43
2023/06/21 00:22:35;;;;;;;4.75;4.30;;;;;;;;;;5062476;28;42942;-43
2023/06/21 00:25:04;;;;;;;4.65;4.10;;;;;;;;;;5064727;28;44001;-42
2023/06/21 00:27:32;;;;;;;4.32;3.92;;;;;;;;;;5064917;28;41264;-42
2023/06/21 00:30:02;;;;;;;5.05;3.95;;;;;;;;;;5065218;28;42115;-42
2023/06/21 00:32:30;;;;;;;5.63;3.92;;;;;;;;;;5068510;28;44508;-43
2023/06/21 00:34:58;;;;;;;4.93;4.32;;;;;;;;;;5069476;28;40472;-42
2023/06/21 00:37:27;;;;;;;5.70;4.45;;;;;;;;;;5068022;28;43417;-43
2023/06/21 00:39:55;;;;;;;4.97;4.55;;;;;;;;;;5069450;28;39962;-43
2023/06/21 00:42:23;;;;;;;5.30;4.63;;;;;;;;;;5068653;28;42257;-42
2023/06/21 00:44:51;;;;;;;5.47;4.10;;;;;;;;;;5065813;28;42202;-42
2023/06/21 00:47:22;;;;;;;5.13;4.32;;;;;;;;;;5068685;28;41350;-43
2023/06/21 00:49:50;;;;;;;5.20;4.70;;;;;;;;;;5069288;28;42393;-43
2023/06/21 00:52:18;;;;;;;5.32;4.82;;;;;;;;;;5067170;28;44043;-41
2023/06/21 00:54:46;;;;;;;6.88;4.82;;;;;;;;;;5067336;28;39606;-43
2023/06/21 00:57:14;;;;;;;4.40;4.00;;;;;;;;;;5068348;28;43467;-44
2023/06/21 00:59:42;;;;;;;4.95;4.25;;;;;;;;;;5067610;28;41095;-43
2023/06/21 01:02:10;;;;;;;5.00;4.50;;;;;;;;;;5068613;28;42742;-42
2023/06/21 01:04:40;;;;;;;6.07;5.05;;;;;;;;;;5067538;28;43003;-43
2023/06/21 01:07:11;;;;;;;5.00;4.50;;;;;;;;;;5066452;28;39344;-42
2023/06/21 01:09:41;;;;;;;4.78;4.38;;;;;;;;;;5068080;28;42624;-42
2023/06/21 01:12:11;;;;;;;5.75;4.63;;;;;;;;;;5068373;28;42983;-42
2023/06/21 01:14:41;;;;;;;4.95;4.45;;;;;;;;;;5064692;28;40975;-42
2023/06/21 01:17:09;;;;;;;4.80;4.40;;;;;;;;;;5069066;28;43261;-43
2023/06/21 01:19:41;;;;;;;5.05;4.53;;;;;;;;;;5066859;28;41791;-42
2023/06/21 01:22:13;;;;;;;4.80;4.38;;;;;;;;;;5065929;28;42219;-42
2023/06/21 01:24:42;;;;;;;6.40;4.75;;;;;;;;;;5067506;28;43479;-43
2023/06/21 01:27:21;;;;;;;5.20;4.70;;;;;;;;;;5066124;28;39189;-43
2023/06/21 01:29:55;;;;;;;5.03;4.43;;;;;;;;;;5078826;28;41087;-43
2023/06/21 01:32:23;;;;;;;5.95;4.75;;;;;;;;;;5064408;28;43613;-43
2023/06/21 01:34:53;;;;;;;4.82;4.43;;;;;;;;;;5065172;28;40338;-43
2023/06/21 01:37:21;;;;;;;4.95;4.55;;;;;;;;;;5083326;28;42116;-42
2023/06/21 01:39:50;;;;;;;5.32;4.68;;;;;;;;;;5068561;28;44244;-43
2023/06/21 01:42:18;;;;;;;5.93;4.85;;;;;;;;;;5080569;28;40964;-42
2023/06/21 01:44:46;;;;;;;7.38;4.75;;;;;;;;;;5067643;28;43666;-43
2023/06/21 01:47:16;;;;;;;5.20;4.65;;;;;;;;;;5066281;28;40337;-43
2023/06/21 01:49:43;;;;;;;4.47;4.07;;;;;;;;;;5068075;28;42991;-43
2023/06/21 01:52:11;;;;;;;5.00;4.60;;;;;;;;;;5067234;28;44415;-43
2023/06/21 01:54:41;;;;;;;5.10;4.63;;;;;;;;;;5064374;28;40300;-42
2023/06/21 01:57:10;;;;;;;5.68;5.18;;;;;;;;;;5067759;28;42473;-42
2023/06/21 01:59:39;;;;;;;5.15;4.65;;;;;;;;;;5096433;28;42682;-42
2023/06/21 02:02:08;;;;;;;5.95;4.93;;;;;;;;;;5065981;28;38782;-44
2023/06/21 02:04:38;;;;;;;5.45;4.95;;;;;;;;;;5067196;28;44389;-42
2023/06/21 02:07:07;;;;;;;6.15;4.78;;;;;;;;;;5065897;28;39874;-43
2023/06/21 02:09:35;;;;;;;6.93;5.38;;;;;;;;;;5066335;28;42333;-42
2023/06/21 02:12:06;;;;;;;4.97;4.47;;;;;;;;;;5067468;28;44464;-42
2023/06/21 02:14:36;;;;;;;7.13;5.00;;;;;;;;;;5067211;28;40346;-43
2023/06/21 02:17:04;;;;;;;5.07;4.57;;;;;;;;;;5064450;28;41251;-43
2023/06/21 02:19:32;;;;;;;5.35;4.85;;;;;;;;;;5066668;28;43628;-43
2023/06/21 02:22:02;;;;;;;5.50;4.90;;;;;;;;;;5066651;28;39905;-42
2023/06/21 02:24:30;;;;;;;5.68;4.40;;;;;;;;;;5064501;28;41951;-43
2023/06/21 02:26:58;;;;;;;5.50;5.00;;;;;;;;;;5067467;28;41973;-43
2023/06/21 02:29:25;;;;;;;5.47;4.97;;;;;;;;;;5067274;28;42488;-43
2023/06/21 02:31:53;;;;;;;5.55;5.05;;;;;;;;;;5064960;28;43060;-42
2023/06/21 02:34:21;;;;;;;5.75;4.80;;;;;;;;;;5066748;28;41337;-43
2023/06/21 02:36:53;;;;;;;5.40;4.90;;;;;;;;;;5066568;28;43831;-42
2023/06/21 02:39:24;;;;;;;5.20;4.70;;;;;;;;;;5079326;28;42421;-43
2023/06/21 02:41:54;;;;;;;5.57;4.88;;;;;;;;;;5069978;28;38926;-43
2023/06/21 02:44:22;;;;;;;5.80;5.15;;;;;;;;;;5064316;28;42014;-42
2023/06/21 02:46:50;;;;;;;5.50;5.00;;;;;;;;;;5067338;28;43285;-42
2023/06/21 02:49:18;;;;;;;5.60;5.10;;;;;;;;;;5066242;28;43654;-42
2023/06/21 02:51:49;;;;;;;5.43;4.90;;;;;;;;;;5066049;28;43034;-42
2023/06/21 02:54:17;;;;;;;5.60;5.10;;;;;;;;;;5066269;28;40028;-42
2023/06/21 02:56:46;;;;;;;5.03;4.60;;;;;;;;;;5065107;28;41947;-42
2023/06/21 02:59:14;;;;;;;5.50;5.00;;;;;;;;;;5064463;28;42160;-43
2023/06/21 03:01:42;;;;;;;5.60;5.10;;;;;;;;;;5064783;28;39441;-43
2023/06/21 03:04:11;;;;;;;6.00;5.40;;;;;;;;;;5067196;28;43462;-43
2023/06/21 03:06:39;;;;;;;6.22;5.10;;;;;;;;;;5063965;28;41606;-43
2023/06/21 03:09:07;;;;;;;5.72;5.22;;;;;;;;;;5065603;28;41093;-43
2023/06/21 03:11:35;;;;;;;6.03;5.40;;;;;;;;;;5064167;28;42865;-43
2023/06/21 03:14:04;;;;;;;5.60;4.97;;;;;;;;;;5065711;28;40074;-43
2023/06/21 03:16:33;;;;;;;5.55;5.05;;;;;;;;;;5064674;28;42260;-43
2023/06/21 03:19:01;;;;;;;5.93;5.43;;;;;;;;;;5063994;28;41872;-43
2023/06/21 03:21:29;;;;;;;5.70;5.20;;;;;;;;;;5064217;28;39974;-43
2023/06/21 03:24:00;;;;;;;5.88;5.05;;;;;;;;;;5064700;28;43020;-43
2023/06/21 03:26:28;;;;;;;5.65;5.15;;;;;;;;;;5063912;28;42017;-43
2023/06/21 03:28:59;;;;;;;5.95;5.45;;;;;;;;;;5064936;28;40382;-43
2023/06/21 03:31:29;;;;;;;6.30;5.70;;;;;;;;;;5063657;28;42466;-43
2023/06/21 03:33:57;;;;;;;5.80;5.22;;;;;;;;;;5065657;28;40385;-43
2023/06/21 03:36:28;;;;;;;6.28;5.68;;;;;;;;;;5070502;28;43754;-42
2023/06/21 03:38:56;;;;;;;5.65;5.15;;;;;;;;;;5070155;28;41997;-42
2023/06/21 03:41:24;;;;;;;6.05;5.45;;;;;;;;;;5065023;28;40221;-43
2023/06/21 03:43:54;;;;;;;5.60;5.10;;;;;;;;;;5063743;28;41105;-43
2023/06/21 03:46:22;;;;;;;6.22;5.63;;;;;;;;;;5078665;28;42109;-42
2023/06/21 03:48:53;;;;;;;6.15;5.55;;;;;;;;;;5063727;28;41174;-43
2023/06/21 03:51:24;;;;;;;6.65;6.05;;;;;;;;;;5063602;28;42612;-43
2023/06/21 03:53:53;;;;;;;6.07;5.57;;;;;;;;;;5063620;28;38738;-43
2023/06/21 03:56:21;;;;;;;5.88;5.30;;;;;;;;;;5065136;28;43326;-43
2023/06/21 03:58:49;;;;;;;6.75;6.05;;;;;;;;;;5065832;28;43025;-43
2023/06/21 04:01:17;;;;;;;6.47;5.88;;;;;;;;;;5065039;28;40190;-43
2023/06/21 04:03:45;;;;;;;6.15;5.55;;;;;;;;;;5066503;28;42245;-43
2023/06/21 04:06:14;;;;;;;6.22;5.55;;;;;;;;;;5069746;28;42984;-43
2023/06/21 04:08:42;;;;;;;6.10;5.55;;;;;;;;;;5068279;28;40324;-42
2023/06/21 04:11:10;;;;;;;6.70;6.00;;;;;;;;;;5067309;28;42242;-43
2023/06/21 04:13:38;;;;;;;7.57;5.93;;;;;;;;;;5067921;28;42779;-47
2023/06/21 04:16:06;;;;;;;6.38;5.78;;;;;;;;;;5068890;28;42701;-43
2023/06/21 04:18:34;;;;;;;8.77;6.30;;;;;;;;;;5068989;28;43930;-43
2023/06/21 04:21:02;;;;;;;6.95;6.30;;;;;;;;;;5067504;28;39167;-40
2023/06/21 04:23:31;;;;;;;7.00;6.30;;;;;;;;;;5068012;28;42609;-43
2023/06/21 04:25:59;;;;;;;7.20;6.47;;;;;;;;;;5066823;28;41877;-43
2023/06/21 04:28:27;;;;;;;8.55;6.63;;;;;;;;;;5068606;28;40520;-43
2023/06/21 04:30:56;;;;;;;7.13;6.53;;;;;;;;;;5066519;28;41001;-43
2023/06/21 04:33:24;;;;;;;7.25;6.60;;;;;;;;;;5068048;28;43000;-42
2023/06/21 04:35:51;;;;;;;7.43;6.72;;;;;;;;;;5069156;28;39978;-42
2023/06/21 04:38:19;;;;;;;7.97;7.18;;;;;;;;;;5067962;28;43794;-42
2023/06/21 04:40:51;;;;;;;7.00;6.32;;;;;;;;;;5069269;28;40406;-43
2023/06/21 04:43:21;;;;;;;7.57;6.85;;;;;;;;;;5067588;28;42797;-42
2023/06/21 04:45:49;;;;;;;7.53;6.82;;;;;;;;;;5069055;28;43405;-42
2023/06/21 04:48:17;;;;;;;7.85;7.05;;;;;;;;;;5068717;28;41329;-42
2023/06/21 04:50:46;;;;;;;9.05;7.03;;;;;;;;;;5068578;28;43367;-43
2023/06/21 04:53:14;;;;;;;7.72;6.85;;;;;;;;;;5054867;28;42908;-43
2023/06/21 04:55:42;;;;;;;8.10;7.30;;;;;;;;;;5068859;28;39882;-43
2023/06/21 04:58:12;;;;;;;8.10;7.30;;;;;;;;;;5068499;28;42327;-43
2023/06/21 05:00:40;;;;;;;7.78;6.97;;;;;;;;;;5067592;28;40018;-43
2023/06/21 05:03:08;;;;;;;8.35;7.35;;;;;;;;;;5068665;28;42639;-43
2023/06/21 05:05:36;;;;;;;9.02;7.68;;;;;;;;;;5067537;28;43982;-43
2023/06/21 05:08:06;;;;;;;9.15;8.35;;;;;;;;;;5067732;28;40271;-43
2023/06/21 05:10:33;;;;;;;8.73;7.78;;;;;;;;;;5067827;28;43749;-44
2023/06/21 05:13:02;;;;;;;8.00;7.25;;;;;;;;;;5067432;28;44367;-43
2023/06/21 05:15:31;;;;;;;7.57;6.88;;;;;;;;;;5067787;28;40131;-43
2023/06/21 05:17:59;;;;;;;8.27;7.40;;;;;;;;;;5067998;28;42846;-43
2023/06/21 05:20:27;;;;;;;9.20;8.30;;;;;;;;;;5066898;28;40939;-43
2023/06/21 05:22:56;;;;;;;8.45;7.65;;;;;;;;;;5068537;28;43134;-43
2023/06/21 05:25:23;;;;;;;9.20;7.90;;;;;;;;;;5066280;28;44390;-43
2023/06/21 05:27:51;;;;;;;8.40;7.60;;;;;;;;;;5067974;28;42370;-43
2023/06/21 05:30:19;;;;;;;9.43;8.52;;;;;;;;;;5067466;28;42133;-43
2023/06/21 05:32:48;;;;;;;9.00;8.10;;;;;;;;;;5067536;28;43058;-43
2023/06/21 05:35:16;;;;;;;11.13;8.52;;;;;;;;;;5067790;28;41375;-43
2023/06/21 05:37:44;;;;;;;9.10;8.30;;;;;;;;;;5068153;28;43219;-43
2023/06/21 05:40:12;;;;;;;8.43;7.63;;;;;;;;;;5067257;28;42723;-43
2023/06/21 05:42:40;;;;;;;10.02;9.13;;;;;;;;;;5067440;28;43718;-43
2023/06/21 05:45:09;;;;;;;9.85;8.95;;;;;;;;;;5067239;28;44378;-43
2023/06/21 05:47:37;;;;;;;10.68;9.57;;;;;;;;;;5066270;28;40658;-43
2023/06/21 05:50:07;;;;;;;10.93;9.82;;;;;;;;;;5095526;28;42201;-43
2023/06/21 05:52:34;;;;;;;11.30;10.10;;;;;;;;;;5066752;28;45050;-43
2023/06/21 05:55:02;;;;;;;11.38;9.98;;;;;;;;;;5067060;28;40404;-43
2023/06/21 05:57:30;;;;;;;11.23;9.90;;;;;;;;;;5066771;28;42441;-40
2023/06/21 05:59:58;;;;;;;16.23;12.27;;;;;;;;;;5067178;28;43979;-39
2023/06/21 06:02:26;;;;;;;13.60;12.07;;;;;;;;;;5066205;28;39929;-41
2023/06/21 06:04:54;;;;;;;13.57;12.25;;;;;;;;;;5066964;28;43117;-39
2023/06/21 06:07:25;;;;;;;14.88;13.32;;;;;;;;;;5052741;28;39977;-40
2023/06/21 06:09:53;;;;;;;15.35;13.55;;;;;;;;;;5066564;28;42630;-39
2023/06/21 06:12:21;;;;;;;14.52;13.10;;;;;;;;;;5066406;28;43488;-41
2023/06/21 06:14:50;;;;;;;15.63;13.90;;;;;;;;;;5065928;28;40432;-39
2023/06/21 06:17:18;;;;;;;16.13;14.50;;;;;;;;;;5065906;28;42317;-40
2023/06/21 06:19:46;;;;;;;16.45;14.80;;;;;;;;;;5066987;28;43353;-40
2023/06/21 06:22:14;;;;;;;16.05;14.55;;;;;;;;;;5066354;28;40598;-39
2023/06/21 06:24:45;;;;;;;16.45;14.75;;;;;;;;;;5067304;28;42586;-40
2023/06/21 06:27:13;;;;;;;16.65;15.02;;;;;;;;;;5063682;28;40050;-41
2023/06/21 06:29:41;;;;;;;17.08;15.38;;;;;;;;;;5064872;28;42627;-40
2023/06/21 06:32:09;;;;;;;16.65;15.05;;;;;;;;;;5065149;28;43457;-40
2023/06/21 06:34:37;;;;;;;17.23;15.65;;;;;;;;;;5066181;28;41244;-41
2023/06/21 06:37:05;;;;;;;18.05;16.27;;;;;;;;;;5066155;28;42781;-38
2023/06/21 06:39:43;;;;;;;16.95;15.38;;;;;;;;;;5063826;28;44345;-40
2023/06/21 06:42:11;;;;;;;16.88;15.18;;;;;;;;;;5065435;28;40868;-41
2023/06/21 06:44:41;;;;;;;17.90;16.08;;;;;;;;;;5062222;28;42338;-39
2023/06/21 06:47:08;;;;;;;17.92;16.10;;;;;;;;;;5067192;28;44444;-37
2023/06/21 06:49:36;;;;;;;17.45;15.85;;;;;;;;;;5064923;28;43678;-41
2023/06/21 06:52:05;;;;;;;18.33;16.55;;;;;;;;;;5066249;28;43348;-40
2023/06/21 06:54:33;;;;;;;17.70;16.00;;;;;;;;;;5065993;28;39960;-41
2023/06/21 06:57:02;;;;;;;18.67;16.88;;;;;;;;;;5065772;28;43282;-40
2023/06/21 06:59:30;;;;;;;17.70;16.00;;;;;;;;;;5065975;28;42883;-41
2023/06/21 07:01:58;;;;;;;18.52;16.80;;;;;;;;;;5066500;28;40252;-43
2023/06/21 07:04:28;;;;;;;18.38;16.58;;;;;;;;;;5065376;28;43040;-39
2023/06/21 07:06:58;;;;;;;17.80;16.10;;;;;;;;;;5065187;28;42749;-41
2023/06/21 07:09:26;;;;;;;18.13;16.42;;;;;;;;;;5066512;28;40313;-41
2023/06/21 07:11:59;;;;;;;18.55;16.65;;;;;;;;;;5065356;28;44063;-41
2023/06/21 07:14:28;;;;;;;18.27;16.48;;;;;;;;;;5064957;28;41394;-42
2023/06/21 07:16:56;;;;;;;18.50;16.70;;;;;;;;;;5065706;28;42080;-42
2023/06/21 07:19:24;;;;;;;17.85;16.10;;;;;;;;;;5065590;28;44744;-41
2023/06/21 07:21:52;;;;;;;18.02;16.25;;;;;;;;;;5066165;28;40393;-39
2023/06/21 07:24:20;;;;;;;17.77;16.10;;;;;;;;;;5064101;28;41883;-39
2023/06/21 07:26:47;;;;;;;16.83;15.27;;;;;;;;;;5065680;28;43262;-40
2023/06/21 07:29:16;;;;;;;18.13;16.35;;;;;;;;;;5066013;28;40504;-41
2023/06/21 07:31:45;;;;;;;17.98;16.38;;;;;;;;;;5065532;28;43328;-40
2023/06/21 07:34:13;;;;;;;17.25;15.60;;;;;;;;;;5064823;28;41366;-39
2023/06/21 07:36:41;;;;;;;17.50;15.77;;;;;;;;;;5065048;28;42569;-39
2023/06/21 07:39:09;;;;;;;17.67;15.88;;;;;;;;;;5053858;28;43043;-39
2023/06/21 07:41:37;;;;;;;17.83;16.17;;;;;;;;;;5069110;28;41393;-40
2023/06/21 07:44:05;;;;;;;17.90;16.13;;;;;;;;;;5069497;28;42758;-41
2023/06/21 07:46:33;;;;;;;18.08;16.30;;;;;;;;;;5068339;28;43802;-40
2023/06/21 07:49:02;;;;;;;17.38;15.70;;;;;;;;;;5067680;28;39726;-41
2023/06/21 07:51:30;;;;;;;17.17;15.48;;;;;;;;;;5069133;28;43092;-41
2023/06/21 07:53:58;;;;;;;17.65;16.00;;;;;;;;;;5077901;28;39810;-42
2023/06/21 07:56:26;;;;;;;17.83;15.80;;;;;;;;;;5069266;28;43173;-40
2023/06/21 07:58:54;;;;;;;16.77;15.23;;;;;;;;;;5069909;28;43519;-38
2023/06/21 08:01:22;;;;;;;16.90;15.25;;;;;;;;;;5068537;28;40601;-40
2023/06/21 08:03:50;;;;;;;17.77;16.08;;;;;;;;;;5069526;28;43354;-41
2023/06/21 08:06:19;;;;;;;18.40;15.43;;;;;;;;;;5068157;28;43535;-41
2023/06/21 08:08:47;;;;;;;17.45;15.63;;;;;;;;;;5068072;28;40942;-39
2023/06/21 08:11:15;;;;;;;17.40;15.70;;;;;;;;;;5064839;28;43189;-41
2023/06/21 08:13:43;;;;;;;17.25;15.63;;;;;;;;;;5069437;28;43979;-41
2023/06/21 08:16:11;;;;;;;16.38;14.88;;;;;;;;;;5067008;28;42818;-41
2023/06/21 08:18:39;;;;;;;17.67;15.45;;;;;;;;;;5068199;28;44055;-41
2023/06/21 08:21:08;;;;;;;15.90;14.35;;;;;;;;;;5069453;28;41922;-39
2023/06/21 08:23:37;;;;;;;16.63;15.02;;;;;;;;;;5068552;28;43722;-41
2023/06/21 08:26:05;;;;;;;17.10;15.48;;;;;;;;;;5069278;28;43690;-38
2023/06/21 08:28:33;;;;;;;16.67;15.13;;;;;;;;;;5067827;28;40568;-41
2023/06/21 08:31:01;;;;;;;16.58;15.00;;;;;;;;;;5069325;28;43223;-39
2023/06/21 08:33:29;;;;;;;16.80;15.23;;;;;;;;;;5065136;28;44124;-41
2023/06/21 08:35:57;;;;;;;16.05;14.65;;;;;;;;;;5066233;28;39941;-41
2023/06/21 08:38:25;;;;;;;15.55;14.10;;;;;;;;;;5068578;28;43613;-41
2023/06/21 08:40:58;;;;;;;16.17;14.68;;;;;;;;;;5065148;28;41299;-37
2023/06/21 08:43:26;;;;;;;17.30;15.70;;;;;;;;;;5064153;28;44253;-41
2023/06/21 08:45:54;;;;;;;16.63;15.13;;;;;;;;;;5065024;28;44072;-41
2023/06/21 08:48:22;;;;;;;16.38;14.88;;;;;;;;;;5067977;28;40478;-42
2023/06/21 08:50:50;;;;;;;17.17;15.57;;;;;;;;;;5065477;28;40979;-42
2023/06/21 08:53:19;;;;;;;16.85;15.35;;;;;;;;;;5068121;28;43923;-41
2023/06/21 08:55:47;;;;;;;17.08;15.45;;;;;;;;;;5068449;28;40590;-41
2023/06/21 08:58:17;;;;;;;16.02;14.65;;;;;;;;;;5068460;28;42677;-40
2023/06/21 09:00:45;;;;;;;16.52;14.93;;;;;;;;;;5068909;28;40249;-42
2023/06/21 09:03:14;;;;;;;16.95;15.40;;;;;;;;;;5068364;28;42201;-42
2023/06/21 09:05:44;;;;;;;17.08;15.45;;;;;;;;;;5066962;28;43846;-41
2023/06/21 09:08:13;;;;;;;17.05;15.55;;;;;;;;;;5068146;28;41347;-41
2023/06/21 09:10:41;;;;;;;16.02;14.63;;;;;;;;;;5067114;28;43159;-42
2023/06/21 09:13:09;;;;;;;15.93;14.43;;;;;;;;;;5067821;28;43829;-41
2023/06/21 09:15:39;;;;;;;15.35;14.05;;;;;;;;;;5068141;28;40398;-41
2023/06/21 09:18:07;;;;;;;15.98;14.50;;;;;;;;;;5067831;28;43634;-42
2023/06/21 09:20:34;;;;;;;15.65;14.30;;;;;;;;;;5065831;28;31636;-42
2023/06/21 09:23:02;;;;;;;16.25;14.85;;;;;;;;;;5067369;28;43365;-42
2023/06/21 09:25:31;;;;;;;15.50;14.10;;;;;;;;;;5064874;28;42261;-41
2023/06/21 09:27:58;;;;;;;15.60;14.18;;;;;;;;;;5067932;28;39812;-42
2023/06/21 09:30:26;;;;;;;16.30;14.88;;;;;;;;;;5067617;28;42684;-41
2023/06/21 09:32:58;;;;;;;15.80;14.43;;;;;;;;;;5064347;28;43895;-42
2023/06/21 09:35:26;;;;;;;15.80;14.50;;;;;;;;;;5067166;28;42491;-41
2023/06/21 09:37:54;;;;;;;16.38;15.05;;;;;;;;;;5067810;28;42436;-41
2023/06/21 09:40:22;;;;;;;15.70;14.30;;;;;;;;;;5066891;28;44105;-42
2023/06/21 09:42:50;;;;;;;16.70;15.10;;;;;;;;;;5068050;28;43790;-42
2023/06/21 09:45:18;;;;;;;16.08;14.77;;;;;;;;;;5066781;28;43959;-42
2023/06/21 09:47:46;;;;;;;16.35;14.95;;;;;;;;;;5064811;28;38908;-41
2023/06/21 09:50:16;;;;;;;16.27;14.77;;;;;;;;;;5067867;28;42093;-42
2023/06/21 09:52:44;;;;;;;15.80;14.40;;;;;;;;;;5066297;28;44332;-41
2023/06/21 09:55:15;;;;;;;16.15;14.68;;;;;;;;;;5067709;28;40312;-38
2023/06/21 09:57:43;;;;;;;15.95;14.65;;;;;;;;;;5066215;28;42846;-42
2023/06/21 10:00:12;;;;;;;15.75;14.45;;;;;;;;;;5065801;28;43584;-36
2023/06/21 10:02:42;;;;;;;16.85;15.45;;;;;;;;;;5065614;28;40590;-35
2023/06/21 10:05:18;;;;;;;16.27;14.77;;;;;;;;;;5066809;28;43680;-34
2023/06/21 10:07:46;;;;;;;16.42;15.02;;;;;;;;;;5063371;28;40854;-33
2023/06/21 10:10:14;;;;;;;16.80;15.35;;;;;;;;;;5066881;28;42396;-38
2023/06/21 10:12:49;;;;;;;15.85;14.45;;;;;;;;;;5064994;28;44140;-39
2023/06/21 10:15:19;;;;;;;14.77;13.57;;;;;;;;;;5058433;28;39870;-38
2023/06/21 10:17:47;;;;;;;14.82;13.63;;;;;;;;;;5065946;28;43738;-37
2023/06/21 10:20:33;;;;;;;15.18;13.90;;;;;;;;;;5059688;28;43224;-36
2023/06/21 10:23:01;;;;;;;15.35;14.05;;;;;;;;;;5063220;28;39466;-33
2023/06/21 10:25:29;;;;;;;15.30;14.00;;;;;;;;;;5065658;28;42519;-36
2023/06/21 10:27:58;;;;;;;14.93;13.73;;;;;;;;;;5064920;28;40239;-36
2023/06/21 10:30:26;;;;;;;15.32;14.02;;;;;;;;;;5063789;28;42460;-33
2023/06/21 10:32:54;;;;;;;14.63;13.43;;;;;;;;;;5064209;28;43669;-38
2023/06/21 10:35:22;;;;;;;14.57;13.35;;;;;;;;;;5062546;28;40253;-35
2023/06/21 10:37:55;;;;;;;15.18;13.93;;;;;;;;;;5064766;28;42271;-33
2023/06/21 10:40:23;;;;;;;15.50;14.20;;;;;;;;;;5061362;28;43122;-36
2023/06/21 10:42:51;;;;;;;15.27;13.98;;;;;;;;;;5064014;28;41389;-36
2023/06/21 10:45:19;;;;;;;13.85;12.65;;;;;;;;;;5064211;28;42429;-36
2023/06/21 10:47:47;;;;;;;14.30;13.10;;;;;;;;;;5066365;28;43301;-36
2023/06/21 10:50:16;;;;;;;13.93;12.80;;;;;;;;;;5066515;28;20665;-36
2023/06/21 10:52:44;;;;;;;14.25;12.93;;;;;;;;;;5066180;28;43621;-38
2023/06/21 10:55:14;;;;;;;14.40;13.20;;;;;;;;;;5065364;28;39004;-36
2023/06/21 10:57:42;;;;;;;13.43;12.32;;;;;;;;;;5065300;28;43629;-35
2023/06/21 11:00:10;;;;;;;13.32;12.23;;;;;;;;;;5066282;28;43440;-34
2023/06/21 11:02:38;;;;;;;13.70;12.60;;;;;;;;;;5065763;28;39906;-32
2023/06/21 11:05:12;;;;;;;13.30;12.20;;;;;;;;;;5065024;28;42647;-34
2023/06/21 11:07:45;;;;;;;13.32;12.18;;;;;;;;;;5062762;28;43922;-35
2023/06/21 11:10:14;;;;;;;13.00;11.95;;;;;;;;;;5063079;28;38967;-35
2023/06/21 11:12:42;;;;;;;12.43;11.43;;;;;;;;;;5065542;28;43299;-36
2023/06/21 11:15:11;;;;;;;13.25;12.18;;;;;;;;;;5065546;28;40957;-33
2023/06/21 11:17:39;;;;;;;13.07;12.00;;;;;;;;;;5056701;28;42753;-35
2023/06/21 11:20:19;;;;;;;12.77;11.77;;;;;;;;;;5065837;28;43475;-34
2023/06/21 11:22:56;;;;;;;12.73;11.52;;;;;;;;;;5063203;28;40437;-36
2023/06/21 11:25:26;;;;;;;12.40;11.40;;;;;;;;;;5064269;28;42529;-37
2023/06/21 11:28:12;;;;;;;12.18;11.10;;;;;;;;;;5065635;28;44290;-33
2023/06/21 11:30:41;;;;;;;11.35;10.38;;;;;;;;;;5040839;28;41344;-43
2023/06/21 11:33:18;;;;;;;11.50;10.45;;;;;;;;;;5060900;28;42086;-34
2023/06/21 11:35:49;;;;;;;10.68;9.88;;;;;;;;;;5062228;28;40582;-41
2023/06/21 11:38:17;;;;;;;10.18;9.25;;;;;;;;;;5058475;28;42358;-38
2023/06/21 11:40:47;;;;;;;31.95;10.38;;;;;;;;;;5062245;28;43648;-42
2023/06/21 11:43:16;;;;;;;9.75;8.95;;;;;;;;;;5062714;28;41535;-32
2023/06/21 11:45:44;;;;;;;9.40;8.60;;;;;;;;;;5059685;28;42301;-40
2023/06/21 11:48:14;;;;;;;9.63;8.68;;;;;;;;;;5069181;28;44202;-41
2023/06/21 11:50:42;;;;;;;9.55;8.75;;;;;;;;;;5064235;28;40434;-36
2023/06/21 11:53:22;;;;;;;9.15;8.45;;;;;;;;;;5064837;28;43253;-33
2023/06/21 11:55:52;;;;;;;9.55;8.73;;;;;;;;;;5061238;28;40494;-36
2023/06/21 11:58:20;;;;;;;9.10;8.40;;;;;;;;;;5065306;28;43084;-38
2023/06/21 12:00:48;;;;;;;8.60;7.90;;;;;;;;;;5064131;28;44334;-35
2023/06/21 12:03:16;;;;;;;7.88;7.28;;;;;;;;;;5064609;28;40312;-34
2023/06/21 12:05:45;;;;;;;8.63;7.93;;;;;;;;;;5064884;28;43664;-40
2023/06/21 12:08:13;;;;;;;8.45;7.78;;;;;;;;;;5064829;28;43235;-38
2023/06/21 12:10:41;;;;;;;7.90;7.30;;;;;;;;;;5064495;28;39897;-38
2023/06/21 12:13:11;;;;;;;7.80;7.20;;;;;;;;;;5064832;28;42285;-40
2023/06/21 12:15:39;;;;;;;8.05;7.35;;;;;;;;;;5063876;28;43284;-37
2023/06/21 12:18:09;;;;;;;7.78;7.18;;;;;;;;;;5062620;28;41251;-39
2023/06/21 12:20:37;;;;;;;7.35;6.75;;;;;;;;;;5063811;28;44386;-35
2023/06/21 12:23:06;;;;;;;7.53;6.93;;;;;;;;;;5062369;28;40317;-38
2023/06/21 12:25:44;;;;;;;7.30;6.70;;;;;;;;;;5065244;28;42661;-39
2023/06/21 12:28:13;;;;;;;7.07;6.55;;;;;;;;;;5064673;28;44442;-38
2023/06/21 12:30:48;;;;;;;6.53;5.93;;;;;;;;;;5068207;28;41661;-35
2023/06/21 12:33:16;;;;;;;6.50;5.97;;;;;;;;;;5065640;28;42560;-37
2023/06/21 12:35:44;;;;;;;7.07;6.43;;;;;;;;;;5059660;28;43642;-35
2023/06/21 12:38:13;;;;;;;6.57;5.97;;;;;;;;;;5069534;28;41337;-40
2023/06/21 12:40:53;;;;;;;6.30;5.80;;;;;;;;;;5067299;28;44026;-36
2023/06/21 12:43:36;;;;;;;6.53;6.03;;;;;;;;;;5065790;28;40502;-38
2023/06/21 12:46:05;;;;;;;6.50;6.00;;;;;;;;;;5061527;28;43334;-40
2023/06/21 12:48:33;;;;;;;6.47;5.97;;;;;;;;;;5067151;28;43420;-35
2023/06/21 12:51:01;;;;;;;6.45;5.95;;;;;;;;;;5068167;28;40448;-34
2023/06/21 12:53:29;;;;;;;6.40;5.80;;;;;;;;;;5066628;28;42709;-37
2023/06/21 12:56:02;;;;;;;6.60;6.10;;;;;;;;;;5066642;28;43372;-36
2023/06/21 12:58:31;;;;;;;5.80;5.40;;;;;;;;;;5065228;28;40906;-38
2023/06/21 13:01:01;;;;;;;6.10;5.60;;;;;;;;;;5068240;28;43666;-36
2023/06/21 13:03:30;;;;;;;5.80;5.35;;;;;;;;;;5062916;28;41293;-37
2023/06/21 13:05:58;;;;;;;6.70;6.15;;;;;;;;;;5067520;28;42610;-38
2023/06/21 13:08:26;;;;;;;5.25;4.85;;;;;;;;;;5067009;28;44426;-34
2023/06/21 13:10:56;;;;;;;5.68;5.18;;;;;;;;;;5067265;28;41510;-38
2023/06/21 13:13:24;;;;;;;5.70;5.20;;;;;;;;;;5067215;28;42930;-37
2023/06/21 13:15:52;;;;;;;5.25;4.85;;;;;;;;;;5067789;28;43695;-34
2023/06/21 13:18:22;;;;;;;5.28;4.78;;;;;;;;;;5064740;28;38628;-39
2023/06/21 13:20:54;;;;;;;5.32;4.93;;;;;;;;;;5064593;28;42197;-38
2023/06/21 13:23:23;;;;;;;4.82;4.43;;;;;;;;;;5064146;28;43612;-37
2023/06/21 13:25:51;;;;;;;4.93;4.47;;;;;;;;;;5066317;28;42533;-39
2023/06/21 13:28:19;;;;;;;5.00;4.60;;;;;;;;;;5066369;28;44030;-34
2023/06/21 13:30:47;;;;;;;4.88;4.40;;;;;;;;;;5062829;28;40003;-36
2023/06/21 13:33:15;;;;;;;4.10;3.80;;;;;;;;;;5065000;28;41488;-41
2023/06/21 13:35:44;;;;;;;4.95;4.55;;;;;;;;;;5067587;28;43043;-35
2023/06/21 13:38:13;;;;;;;4.80;4.40;;;;;;;;;;5064985;28;39890;-37
2023/06/21 13:40:41;;;;;;;4.53;4.13;;;;;;;;;;5067646;28;42377;-38
2023/06/21 13:43:09;;;;;;;4.53;4.13;;;;;;;;;;5067212;28;43078;-36
2023/06/21 13:45:37;;;;;;;4.53;4.13;;;;;;;;;;5065465;28;42196;-35
2023/06/21 13:48:06;;;;;;;4.50;4.10;;;;;;;;;;5066195;28;43297;-40
2023/06/21 13:50:34;;;;;;;4.45;4.03;;;;;;;;;;5067285;28;40466;-37
2023/06/21 13:53:03;;;;;;;4.25;3.95;;;;;;;;;;5067190;28;43731;-38
2023/06/21 13:55:31;;;;;;;4.65;4.25;;;;;;;;;;5067295;28;43434;-35
2023/06/21 13:58:00;;;;;;;4.00;3.63;;;;;;;;;;5065212;28;40194;-35
2023/06/21 14:00:28;;;;;;;3.80;3.50;;;;;;;;;;5066087;28;42615;-36
2023/06/21 14:02:56;;;;;;;3.95;3.65;;;;;;;;;;5067220;28;44260;-35
2023/06/21 14:05:25;;;;;;;4.22;3.20;;;;;;;;;;5067258;28;40604;-35
2023/06/21 14:07:53;;;;;;;3.90;3.38;;;;;;;;;;5066250;28;43542;-35
2023/06/21 14:10:22;;;;;;;5.15;3.90;;;;;;;;;;5067007;28;41399;-40
2023/06/21 14:12:50;;;;;;;4.00;3.60;;;;;;;;;;5064288;28;42880;-34
2023/06/21 14:15:18;;;;;;;3.60;3.30;;;;;;;;;;5064444;28;43386;-33
2023/06/21 14:17:46;;;;;;;3.88;3.58;;;;;;;;;;5066790;28;41411;-39
2023/06/21 14:20:14;;;;;;;3.75;3.45;;;;;;;;;;5066464;28;42023;-40
2023/06/21 14:22:42;;;;;;;5.05;3.33;;;;;;;;;;5066994;28;43391;-37
2023/06/21 14:25:10;;;;;;;4.28;3.00;;;;;;;;;;5067291;28;39875;-40
2023/06/21 14:27:39;;;;;;;3.35;3.00;;;;;;;;;;5062305;28;42957;-38
2023/06/21 14:30:08;;;;;;;3.20;2.90;;;;;;;;;;5067510;28;40152;-37
2023/06/21 14:32:36;;;;;;;3.38;3.10;;;;;;;;;;5066162;28;42471;-35
2023/06/21 14:35:04;;;;;;;3.33;3.03;;;;;;;;;;5066093;28;43314;-39
2023/06/21 14:37:32;;;;;;;3.53;2.53;;;;;;;;;;5066588;28;41343;-38
2023/06/21 14:40:02;;;;;;;5.57;3.05;;;;;;;;;;5065807;28;42645;-38
2023/06/21 14:42:30;;;;;;;9.02;3.40;;;;;;;;;;5052684;28;43452;-37